This is the latest recevied weather packets stored in our database for station/object I2TZK-00. If no packets are shown the sender has not sent any weather packets the latest 10 day(s).
| Time | Temp. | Humidity | Pressure | Rain* | Wind** | Luminosity | Snow |
|---|---|---|---|---|---|---|---|
| 1787762667 | 27.78° C | 49% | 1009.6 hPa | - | - | - | - |
| 1787762487 | 27.78° C | 52% | 1009.5 hPa | - | - | - | - |
| 1787762306 | 27.78° C | 60% | 1009.6 hPa | - | - | - | - |
| 1787762062 | 27.78° C | 59% | 1009.6 hPa | - | - | - | - |
| 1787761879 | 27.78° C | 56% | 1009.8 hPa | - | - | - | - |
| 1787761666 | 27.78° C | 53% | 1009.7 hPa | - | - | - | - |
| 1787761486 | 27.78° C | 47% | 1009.7 hPa | - | - | - | - |
| 1787761303 | 27.78° C | 47% | 1009.7 hPa | - | - | - | - |
| 1787761063 | 27.78° C | 47% | 1009.6 hPa | - | - | - | - |
| 1787760882 | 27.78° C | 46% | 1009.7 hPa | - | - | - | - |
| 1787760707 | 27.78° C | 44% | 1009.8 hPa | - | - | - | - |
| 1787760484 | 28.33° C | 45% | 1009.2 hPa | - | - | - | - |
| 1787760304 | 28.33° C | 46% | 1008.9 hPa | - | - | - | - |
| 1787760124 | 28.89° C | 49% | 1008.9 hPa | - | - | - | - |
| 1787759944 | 29.44° C | 50% | 1008.7 hPa | - | - | - | - |
| 1787759763 | 29.44° C | 50% | 1008.7 hPa | - | - | - | - |
| 1787759583 | 29.44° C | 50% | 1008.8 hPa | - | - | - | - |
| 1787759400 | 28.89° C | 49% | 1008.8 hPa | - | - | - | - |
| 1787759218 | 28.89° C | 51% | 1008.6 hPa | - | - | - | - |
| 1787759036 | 28.89° C | 51% | 1008.8 hPa | - | - | - | - |
| 1787758853 | 28.33° C | 50% | 1009.1 hPa | - | - | - | - |
| 1787758672 | 28.33° C | 48% | 1009.3 hPa | - | - | - | - |
| 1787757473 | 28.33° C | 44% | 1009.3 hPa | - | - | - | - |
| 1787757230 | 28.33° C | 43% | 1009.3 hPa | - | - | - | - |
| 1787757080 | 28.89° C | 43% | 1008.9 hPa | - | - | - | - |
* Rain since midnight (hover to see other rain measurements)
** Current wind speed in m/s (hover to see current wind gust speed)